createdAt,value
2018-05-06T00:00:07.098Z,54.11
2018-05-06T00:00:38.697Z,54.18
2018-05-06T00:01:10.281Z,54.18
2018-05-06T00:01:41.886Z,54.32
2018-05-06T00:02:13.459Z,54.15
2018-05-06T00:02:45.066Z,54.41
2018-05-06T00:03:16.676Z,54.42
2018-05-06T00:03:48.258Z,54.29
2018-05-06T00:04:19.902Z,54.55
2018-05-06T00:04:51.472Z,54.56
2018-05-06T00:05:23.058Z,54.55
2018-05-06T00:05:54.647Z,54.51
2018-05-06T00:06:26.221Z,54.47
2018-05-06T00:06:57.798Z,54.24
2018-05-06T00:07:29.393Z,54.24
2018-05-06T00:08:00.982Z,54.21
2018-05-06T00:08:32.559Z,54.25
2018-05-06T00:09:04.161Z,54.17
2018-05-06T00:09:35.770Z,54.10
2018-05-06T00:10:07.353Z,54.31
2018-05-06T00:10:38.998Z,54.21
2018-05-06T00:11:10.578Z,54.06
2018-05-06T00:11:42.177Z,54.20
2018-05-06T00:12:13.753Z,54.24
2018-05-06T00:12:45.353Z,54.07
2018-05-06T00:13:16.962Z,54.10
2018-05-06T00:13:48.558Z,54.30
2018-05-06T00:14:20.178Z,54.00
2018-05-06T00:14:51.759Z,54.27
2018-05-06T00:15:23.348Z,54.14
2018-05-06T00:15:54.990Z,54.22
2018-05-06T00:16:26.594Z,54.16
2018-05-06T00:16:58.205Z,54.09
2018-05-06T00:17:29.794Z,54.10
2018-05-06T00:18:01.370Z,54.18
2018-05-06T00:18:32.983Z,54.17
2018-05-06T00:19:04.610Z,54.25
2018-05-06T00:19:36.237Z,54.30
2018-05-06T00:20:07.831Z,54.30
2018-05-06T00:20:39.477Z,54.36
2018-05-06T00:21:11.048Z,54.27
2018-05-06T00:21:42.630Z,54.12
2018-05-06T00:22:14.233Z,54.22
2018-05-06T00:22:45.840Z,54.27
2018-05-06T00:23:17.436Z,54.20
2018-05-06T00:23:49.005Z,54.18
2018-05-06T00:24:20.632Z,54.36
2018-05-06T00:24:52.229Z,54.17
2018-05-06T00:25:23.897Z,54.34
2018-05-06T00:25:55.491Z,54.20
2018-05-06T00:26:27.072Z,54.43
2018-05-06T00:26:58.640Z,54.16
2018-05-06T00:27:30.232Z,54.15
2018-05-06T00:28:01.838Z,54.15
2018-05-06T00:28:33.453Z,54.22
2018-05-06T00:29:05.064Z,54.26
2018-05-06T00:29:36.674Z,54.32
2018-05-06T00:30:08.258Z,54.52
2018-05-06T00:30:39.906Z,54.39
2018-05-06T00:31:11.510Z,54.32
2018-05-06T00:31:43.104Z,54.38
2018-05-06T00:32:14.714Z,54.43
2018-05-06T00:32:46.298Z,54.38
2018-05-06T00:33:17.897Z,54.44
2018-05-06T00:33:49.493Z,54.48
2018-05-06T00:34:21.064Z,54.60
2018-05-06T00:34:52.657Z,54.46
2018-05-06T00:35:24.266Z,54.52
2018-05-06T00:35:55.919Z,54.60
2018-05-06T00:36:27.502Z,54.59
2018-05-06T00:36:59.096Z,54.78
2018-05-06T00:37:30.693Z,54.58
2018-05-06T00:38:02.288Z,54.70
2018-05-06T00:38:33.894Z,54.65
2018-05-06T00:39:05.481Z,54.52
2018-05-06T00:39:37.092Z,54.58
2018-05-06T00:40:08.684Z,54.68
2018-05-06T00:40:40.266Z,54.73
2018-05-06T00:41:11.914Z,54.54
2018-05-06T00:41:43.481Z,54.49
2018-05-06T00:42:15.061Z,54.52
2018-05-06T00:42:46.649Z,54.74
2018-05-06T00:43:18.268Z,54.73
2018-05-06T00:43:49.836Z,54.92
2018-05-06T00:44:21.438Z,54.67
2018-05-06T00:44:53.049Z,54.58
2018-05-06T00:45:24.634Z,54.62
2018-05-06T00:45:56.245Z,54.82
2018-05-06T00:46:27.908Z,54.82
2018-05-06T00:46:59.476Z,54.81
2018-05-06T00:47:31.086Z,54.88
2018-05-06T00:48:02.674Z,54.83
2018-05-06T00:48:34.276Z,54.89
2018-05-06T00:49:05.858Z,55.06
2018-05-06T00:49:37.446Z,54.87
2018-05-06T00:50:09.036Z,55.04
2018-05-06T00:50:40.631Z,54.89
2018-05-06T00:51:12.217Z,54.82
2018-05-06T00:51:43.862Z,54.98
2018-05-06T00:52:15.460Z,55.11
2018-05-06T00:52:47.040Z,54.88
2018-05-06T00:53:18.635Z,55.07
2018-05-06T00:53:50.246Z,55.01
2018-05-06T00:54:21.841Z,55.24
2018-05-06T00:54:53.422Z,55.17
2018-05-06T00:55:25.026Z,55.07
2018-05-06T00:55:56.625Z,54.91
2018-05-06T00:56:28.195Z,55.22
2018-05-06T00:56:59.854Z,55.14
2018-05-06T00:57:31.457Z,55.18
2018-05-06T00:58:03.042Z,55.10
2018-05-06T00:58:34.625Z,55.06
2018-05-06T00:59:06.192Z,55.09
2018-05-06T00:59:37.770Z,55.01
2018-05-06T01:00:09.378Z,55.16
2018-05-06T01:00:40.965Z,55.17
2018-05-06T01:01:12.536Z,55.17
2018-05-06T01:01:44.146Z,54.97
2018-05-06T01:02:15.734Z,55.13
2018-05-06T01:02:47.325Z,55.11
2018-05-06T01:03:18.933Z,55.15
2018-05-06T01:03:50.528Z,55.28
2018-05-06T01:04:22.118Z,55.15
2018-05-06T01:04:53.778Z,55.20
2018-05-06T01:05:25.372Z,55.32
2018-05-06T01:05:56.986Z,55.18
2018-05-06T01:06:28.605Z,55.21
2018-05-06T01:07:00.200Z,55.32
2018-05-06T01:07:31.782Z,55.30
2018-05-06T01:08:03.355Z,55.12
2018-05-06T01:08:34.962Z,55.10
2018-05-06T01:09:06.556Z,55.05
2018-05-06T01:09:38.153Z,55.10
2018-05-06T01:10:09.777Z,55.11
2018-05-06T01:10:41.410Z,55.08
2018-05-06T01:11:12.982Z,55.20
2018-05-06T01:11:44.557Z,55.39
2018-05-06T01:12:16.127Z,55.16
2018-05-06T01:12:47.734Z,55.17
2018-05-06T01:13:19.342Z,55.23
2018-05-06T01:13:50.934Z,55.16
2018-05-06T01:14:22.533Z,55.30
2018-05-06T01:14:54.122Z,55.22
2018-05-06T01:15:25.746Z,55.18
2018-05-06T01:15:57.313Z,55.44
2018-05-06T01:16:28.914Z,55.40
2018-05-06T01:17:00.506Z,55.25
2018-05-06T01:17:32.096Z,55.32
2018-05-06T01:18:03.726Z,55.17
2018-05-06T01:18:35.333Z,55.16
2018-05-06T01:19:07.007Z,55.25
2018-05-06T01:19:38.542Z,55.11
2018-05-06T01:20:10.126Z,55.25
2018-05-06T01:20:41.700Z,55.33
2018-05-06T01:21:13.298Z,55.24
2018-05-06T01:21:44.868Z,55.30
2018-05-06T01:22:16.460Z,55.37
2018-05-06T01:22:48.046Z,55.36
2018-05-06T01:23:19.664Z,55.25
2018-05-06T01:23:51.265Z,55.06
2018-05-06T01:24:22.860Z,55.20
2018-05-06T01:24:54.450Z,55.21
2018-05-06T01:25:26.053Z,55.09
2018-05-06T01:25:57.638Z,55.21
2018-05-06T01:26:29.218Z,55.25
2018-05-06T01:27:00.821Z,55.22
2018-05-06T01:27:32.402Z,55.24
2018-05-06T01:28:03.972Z,55.24
2018-05-06T01:28:35.633Z,55.16
2018-05-06T01:29:07.228Z,55.20
2018-05-06T01:29:38.810Z,55.33
2018-05-06T01:30:10.399Z,55.31
2018-05-06T01:30:41.982Z,55.33
2018-05-06T01:31:13.644Z,55.41
2018-05-06T01:31:45.239Z,55.31
2018-05-06T01:32:16.854Z,55.44
2018-05-06T01:32:48.457Z,55.34
2018-05-06T01:33:20.042Z,55.39
2018-05-06T01:33:51.621Z,55.27
2018-05-06T01:34:23.268Z,55.32
2018-05-06T01:34:54.850Z,55.14
2018-05-06T01:35:26.447Z,55.25
2018-05-06T01:35:58.054Z,55.32
2018-05-06T01:36:29.632Z,55.23
2018-05-06T01:37:01.219Z,55.26
2018-05-06T01:37:32.801Z,55.17
2018-05-06T01:38:04.386Z,55.23
2018-05-06T01:38:35.985Z,55.21
2018-05-06T01:39:07.581Z,55.40
2018-05-06T01:39:39.201Z,55.34
2018-05-06T01:40:10.781Z,55.37
2018-05-06T01:40:42.348Z,55.38
2018-05-06T01:41:13.930Z,55.41
2018-05-06T01:41:45.506Z,55.47
2018-05-06T01:42:17.109Z,55.58
2018-05-06T01:42:48.719Z,55.59
2018-05-06T01:43:20.302Z,55.48
2018-05-06T01:43:51.878Z,55.61
2018-05-06T01:44:23.482Z,55.43
2018-05-06T01:44:55.116Z,55.62
2018-05-06T01:45:26.711Z,55.72
2018-05-06T01:45:58.295Z,55.64
2018-05-06T01:46:29.902Z,55.85
2018-05-06T01:47:01.500Z,55.78
2018-05-06T01:47:33.106Z,55.69
2018-05-06T01:48:04.680Z,55.70
2018-05-06T01:48:36.266Z,55.69
2018-05-06T01:49:07.873Z,55.67
2018-05-06T01:49:39.508Z,55.69
2018-05-06T01:50:11.118Z,55.72
2018-05-06T01:50:42.726Z,55.94
2018-05-06T01:51:14.395Z,55.70
2018-05-06T01:51:45.977Z,55.94
2018-05-06T01:52:17.586Z,55.77
2018-05-06T01:52:49.211Z,55.90
2018-05-06T01:53:20.793Z,56.04
2018-05-06T01:53:52.389Z,56.19
2018-05-06T01:54:23.968Z,56.19
2018-05-06T01:54:55.629Z,56.02
2018-05-06T01:55:27.220Z,55.75
2018-05-06T01:55:58.830Z,55.95
2018-05-06T01:56:30.424Z,56.00
2018-05-06T01:57:02.014Z,56.03
2018-05-06T01:57:33.594Z,55.71
2018-05-06T01:58:05.202Z,55.63
2018-05-06T01:58:36.809Z,55.63
2018-05-06T01:59:08.414Z,55.69
2018-05-06T01:59:40.052Z,55.91
2018-05-06T02:00:11.714Z,55.85
2018-05-06T02:00:43.315Z,55.60
2018-05-06T02:01:14.896Z,55.92
2018-05-06T02:01:46.485Z,55.65
2018-05-06T02:02:18.086Z,55.53
2018-05-06T02:02:49.673Z,55.52
2018-05-06T02:03:21.264Z,55.62
2018-05-06T02:03:52.853Z,55.54
2018-05-06T02:04:24.465Z,55.49
2018-05-06T02:04:56.069Z,55.43
2018-05-06T02:05:27.714Z,55.52
2018-05-06T02:05:59.321Z,55.65
2018-05-06T02:06:30.926Z,55.64
2018-05-06T02:07:02.509Z,55.55
2018-05-06T02:07:34.086Z,55.56
2018-05-06T02:08:05.688Z,55.40
2018-05-06T02:08:37.257Z,55.49
2018-05-06T02:09:08.862Z,55.82
2018-05-06T02:09:40.456Z,55.77
2018-05-06T02:10:12.039Z,55.78
2018-05-06T02:10:43.670Z,55.43
2018-05-06T02:11:15.269Z,55.59
2018-05-06T02:11:46.873Z,55.58
2018-05-06T02:12:18.454Z,55.47
2018-05-06T02:12:50.042Z,55.74
2018-05-06T02:13:21.650Z,55.45
2018-05-06T02:13:53.244Z,55.59
2018-05-06T02:14:24.856Z,55.62
2018-05-06T02:14:56.465Z,55.61
2018-05-06T02:15:28.050Z,55.73
2018-05-06T02:15:59.655Z,55.69
2018-05-06T02:16:31.261Z,55.66
2018-05-06T02:17:02.846Z,55.71
2018-05-06T02:17:34.412Z,55.73
2018-05-06T02:18:06.010Z,55.55
2018-05-06T02:18:37.593Z,55.59
2018-05-06T02:19:09.202Z,55.51
2018-05-06T02:19:40.782Z,55.57
2018-05-06T02:20:12.417Z,55.54
2018-05-06T02:20:44.022Z,55.56
2018-05-06T02:21:15.626Z,55.56
2018-05-06T02:21:47.214Z,55.57
2018-05-06T02:22:18.794Z,55.55
2018-05-06T02:22:50.365Z,55.54
2018-05-06T02:23:21.956Z,55.59
2018-05-06T02:23:53.548Z,55.36
2018-05-06T02:24:25.159Z,55.51
2018-05-06T02:24:56.798Z,55.71
2018-05-06T02:25:28.378Z,55.32
2018-05-06T02:25:59.958Z,55.49
2018-05-06T02:26:31.582Z,55.50
2018-05-06T02:27:03.162Z,55.87
2018-05-06T02:27:34.751Z,55.84
2018-05-06T02:28:06.370Z,55.75
2018-05-06T02:28:37.950Z,55.68
2018-05-06T02:29:09.517Z,55.67
2018-05-06T02:29:41.120Z,55.58
2018-05-06T02:30:12.723Z,55.71
2018-05-06T02:30:44.335Z,55.49
2018-05-06T02:31:15.941Z,55.47
2018-05-06T02:31:47.574Z,55.72
2018-05-06T02:32:19.170Z,55.95
2018-05-06T02:32:50.760Z,55.93
2018-05-06T02:33:22.369Z,55.90
2018-05-06T02:33:53.973Z,55.90
2018-05-06T02:34:25.593Z,55.89
2018-05-06T02:34:57.197Z,56.15
2018-05-06T02:35:28.801Z,55.99
2018-05-06T02:36:00.391Z,55.97
2018-05-06T02:36:31.960Z,55.97
2018-05-06T02:37:03.612Z,55.98
2018-05-06T02:37:35.195Z,55.99
2018-05-06T02:38:06.780Z,56.08
2018-05-06T02:38:38.385Z,56.12
2018-05-06T02:39:09.952Z,56.01
2018-05-06T02:39:41.544Z,56.07
2018-05-06T02:40:13.151Z,56.03
2018-05-06T02:40:44.732Z,56.04
2018-05-06T02:41:47.590Z,56.16
2018-05-06T02:42:19.247Z,55.81
2018-05-06T02:42:50.858Z,55.82
2018-05-06T02:43:22.470Z,55.79
2018-05-06T02:43:54.054Z,55.80
2018-05-06T02:44:25.652Z,55.91
2018-05-06T02:44:57.247Z,55.78
2018-05-06T02:45:28.849Z,55.86
2018-05-06T02:46:00.468Z,55.61
2018-05-06T02:46:32.054Z,55.58
2018-05-06T02:47:03.632Z,55.67
2018-05-06T02:47:35.290Z,55.74
2018-05-06T02:48:06.882Z,55.77
2018-05-06T02:48:38.463Z,55.85
2018-05-06T02:49:10.033Z,55.83
2018-05-06T02:49:41.624Z,55.86
2018-05-06T02:50:13.223Z,55.72
2018-05-06T02:50:44.806Z,55.71
2018-05-06T02:51:16.391Z,55.87
2018-05-06T02:51:48.074Z,55.95
2018-05-06T02:52:19.634Z,55.85
2018-05-06T02:52:51.287Z,55.70
2018-05-06T02:53:22.890Z,55.79
2018-05-06T02:53:54.499Z,55.68
2018-05-06T02:54:26.092Z,55.72
2018-05-06T02:54:57.702Z,55.87
2018-05-06T02:55:29.305Z,55.81
2018-05-06T02:56:00.909Z,55.61
2018-05-06T02:56:32.522Z,55.87
2018-05-06T02:57:04.126Z,55.56
2018-05-06T02:57:35.732Z,55.97
2018-05-06T02:58:07.332Z,55.88
2018-05-06T02:58:38.928Z,55.79
2018-05-06T02:59:10.542Z,55.84
2018-05-06T02:59:42.150Z,55.93
2018-05-06T03:00:13.744Z,55.78
2018-05-06T03:00:45.380Z,55.91
2018-05-06T03:01:17.002Z,55.89
2018-05-06T03:01:48.594Z,55.86
2018-05-06T03:02:20.181Z,56.22
2018-05-06T03:02:51.758Z,55.92
2018-05-06T03:03:23.338Z,56.05
2018-05-06T03:03:54.977Z,55.78
2018-05-06T03:04:26.566Z,56.02
2018-05-06T03:04:58.180Z,55.69
2018-05-06T03:05:29.755Z,55.74
2018-05-06T03:06:01.377Z,55.83
2018-05-06T03:06:32.958Z,56.07
2018-05-06T03:07:04.555Z,55.98
2018-05-06T03:07:36.137Z,55.66
2018-05-06T03:08:07.737Z,55.68
2018-05-06T03:08:39.345Z,55.74
2018-05-06T03:09:10.915Z,55.92
2018-05-06T03:09:42.498Z,55.73
2018-05-06T03:10:14.141Z,55.67
2018-05-06T03:10:45.735Z,55.63
2018-05-06T03:11:17.349Z,55.68
2018-05-06T03:11:48.963Z,55.77
2018-05-06T03:12:20.546Z,55.87
2018-05-06T03:12:52.202Z,55.88
2018-05-06T03:13:23.786Z,55.73
2018-05-06T03:13:55.359Z,55.77
2018-05-06T03:14:26.943Z,55.79
2018-05-06T03:14:58.527Z,55.77
2018-05-06T03:15:30.116Z,55.79
2018-05-06T03:16:01.733Z,55.86
2018-05-06T03:16:33.338Z,55.90
2018-05-06T03:17:04.932Z,56.01
2018-05-06T03:17:36.542Z,55.85
2018-05-06T03:18:08.157Z,55.81
2018-05-06T03:18:39.724Z,55.93
2018-05-06T03:19:11.330Z,55.86
2018-05-06T03:19:42.908Z,55.76
2018-05-06T03:20:14.506Z,55.78
2018-05-06T03:20:46.094Z,56.00
2018-05-06T03:21:17.696Z,55.90
2018-05-06T03:21:49.282Z,55.96
2018-05-06T03:22:20.916Z,55.80
2018-05-06T03:22:52.521Z,55.87
2018-05-06T03:23:24.140Z,55.88
2018-05-06T03:23:55.708Z,55.95
2018-05-06T03:24:27.276Z,55.83
2018-05-06T03:24:58.874Z,55.85
2018-05-06T03:25:30.458Z,55.87
2018-05-06T03:26:02.046Z,55.77
2018-05-06T03:26:33.630Z,55.85
2018-05-06T03:27:05.233Z,55.85
2018-05-06T03:27:36.806Z,55.83
2018-05-06T03:28:08.417Z,55.84
2018-05-06T03:28:40.036Z,55.82
2018-05-06T03:29:11.692Z,55.88
2018-05-06T03:29:43.286Z,55.95
2018-05-06T03:30:14.875Z,55.85
2018-05-06T03:30:46.496Z,56.01
2018-05-06T03:31:18.102Z,55.84
2018-05-06T03:31:49.685Z,55.80
2018-05-06T03:32:21.266Z,55.87
2018-05-06T03:32:52.850Z,55.95
2018-05-06T03:33:24.441Z,55.85
2018-05-06T03:33:56.073Z,56.02
2018-05-06T03:34:27.668Z,56.12
2018-05-06T03:34:59.279Z,55.97
2018-05-06T03:35:30.848Z,55.88
2018-05-06T03:36:02.454Z,55.89
2018-05-06T03:36:34.028Z,56.01
2018-05-06T03:37:05.634Z,55.97
2018-05-06T03:37:37.245Z,55.98
2018-05-06T03:38:08.836Z,56.28
2018-05-06T03:38:40.441Z,56.06
2018-05-06T03:39:12.052Z,56.26
2018-05-06T03:39:43.620Z,56.19
2018-05-06T03:40:15.226Z,56.11
2018-05-06T03:40:46.801Z,56.17
2018-05-06T03:41:18.378Z,56.21
2018-05-06T03:41:49.948Z,56.11
2018-05-06T03:42:21.530Z,56.18
2018-05-06T03:42:53.096Z,56.12
2018-05-06T03:43:24.737Z,55.99
2018-05-06T03:43:56.326Z,55.79
2018-05-06T03:44:27.910Z,55.80
2018-05-06T03:44:59.490Z,55.81
2018-05-06T03:45:31.094Z,55.36
2018-05-06T03:46:02.682Z,55.36
2018-05-06T03:46:34.262Z,55.45
2018-05-06T03:47:05.853Z,55.40
2018-05-06T03:47:37.457Z,55.71
2018-05-06T03:48:09.028Z,55.92
2018-05-06T03:48:40.596Z,55.81
2018-05-06T03:49:12.178Z,55.87
2018-05-06T03:49:43.810Z,55.72
2018-05-06T03:50:15.394Z,55.79
2018-05-06T03:50:46.997Z,55.89
2018-05-06T03:51:18.593Z,55.95
2018-05-06T03:51:50.201Z,55.87
2018-05-06T03:52:21.806Z,56.02
2018-05-06T03:52:53.390Z,56.08
2018-05-06T03:53:24.975Z,56.27
2018-05-06T03:53:56.547Z,55.88
2018-05-06T03:54:28.154Z,56.16
2018-05-06T03:54:59.788Z,56.09
2018-05-06T03:55:31.389Z,56.35
2018-05-06T03:56:02.965Z,56.21
2018-05-06T03:56:34.565Z,56.10
2018-05-06T03:57:06.174Z,56.19
2018-05-06T03:57:37.785Z,56.13
2018-05-06T03:58:09.370Z,56.27
2018-05-06T03:58:40.963Z,56.25
2018-05-06T03:59:12.537Z,56.29
2018-05-06T03:59:44.144Z,56.42
2018-05-06T04:00:15.781Z,56.41
2018-05-06T04:00:47.390Z,56.50
2018-05-06T04:01:18.994Z,56.55
2018-05-06T04:01:50.642Z,56.78
2018-05-06T04:02:22.226Z,56.79
2018-05-06T04:02:53.814Z,56.52
2018-05-06T04:03:25.415Z,56.65
2018-05-06T04:03:57.001Z,56.67
2018-05-06T04:04:28.602Z,56.74
2018-05-06T04:05:00.180Z,56.86
2018-05-06T04:05:31.757Z,56.83
2018-05-06T04:06:03.368Z,56.73
2018-05-06T04:06:34.969Z,56.90
2018-05-06T04:07:06.551Z,56.79
2018-05-06T04:07:38.137Z,56.83
2018-05-06T04:08:09.718Z,57.09
2018-05-06T04:08:41.298Z,56.80
2018-05-06T04:09:12.883Z,57.00
2018-05-06T04:09:44.554Z,56.84
2018-05-06T04:10:16.138Z,57.00
2018-05-06T04:10:47.753Z,56.91
2018-05-06T04:11:19.406Z,56.97
2018-05-06T04:11:51.054Z,56.76
2018-05-06T04:12:22.580Z,56.68
2018-05-06T04:12:54.189Z,56.29
2018-05-06T04:13:25.770Z,56.07
2018-05-06T04:13:57.341Z,55.56
2018-05-06T04:14:28.922Z,55.12
2018-05-06T04:15:00.528Z,54.18
2018-05-06T04:15:32.176Z,53.86
2018-05-06T04:16:03.772Z,53.29
2018-05-06T04:16:35.412Z,52.84
2018-05-06T04:17:06.984Z,52.51
2018-05-06T04:17:38.562Z,51.98
2018-05-06T04:18:10.142Z,51.94
2018-05-06T04:18:41.710Z,51.72
2018-05-06T04:19:13.309Z,51.45
2018-05-06T04:19:44.904Z,51.36
2018-05-06T04:20:16.504Z,51.01
2018-05-06T04:20:48.104Z,50.99
2018-05-06T04:21:19.695Z,50.68
2018-05-06T04:21:51.322Z,50.66
2018-05-06T04:22:22.903Z,50.46
2018-05-06T04:22:54.559Z,50.65
2018-05-06T04:23:26.166Z,50.79
2018-05-06T04:23:57.795Z,51.13
2018-05-06T04:24:29.408Z,51.29
2018-05-06T04:25:00.999Z,51.72
2018-05-06T04:25:32.606Z,52.22
2018-05-06T04:26:04.199Z,52.81
2018-05-06T04:26:35.810Z,53.50
2018-05-06T04:27:07.408Z,53.87
2018-05-06T04:27:38.985Z,54.19
2018-05-06T04:28:10.573Z,54.14
2018-05-06T04:28:42.155Z,54.40
2018-05-06T04:29:13.748Z,54.34
2018-05-06T04:29:45.324Z,54.49
2018-05-06T04:30:16.937Z,54.58
2018-05-06T04:30:48.598Z,54.58
2018-05-06T04:31:20.165Z,54.61
2018-05-06T04:31:51.766Z,55.05
2018-05-06T04:32:23.393Z,55.21
2018-05-06T04:32:54.998Z,55.54
2018-05-06T04:33:26.602Z,55.55
2018-05-06T04:33:58.188Z,55.94
2018-05-06T04:34:29.757Z,55.69
2018-05-06T04:35:01.379Z,55.74
2018-05-06T04:35:32.953Z,55.89
2018-05-06T04:36:04.599Z,55.96
2018-05-06T04:36:36.186Z,56.22
2018-05-06T04:37:07.786Z,56.28
2018-05-06T04:37:39.374Z,56.19
2018-05-06T04:38:10.974Z,56.32
2018-05-06T04:38:42.544Z,56.33
2018-05-06T04:39:14.136Z,56.46
2018-05-06T04:39:45.775Z,56.32
2018-05-06T04:40:17.383Z,56.46
2018-05-06T04:40:48.968Z,56.53
2018-05-06T04:41:20.563Z,56.61
2018-05-06T04:41:52.294Z,56.62
2018-05-06T04:42:23.872Z,56.67
2018-05-06T04:42:55.453Z,56.70
2018-05-06T04:43:27.056Z,56.74
2018-05-06T04:43:58.632Z,56.79
2018-05-06T04:44:30.197Z,56.81
2018-05-06T04:45:01.849Z,57.02
2018-05-06T04:45:33.420Z,57.03
2018-05-06T04:46:05.026Z,57.02
2018-05-06T04:46:36.613Z,56.92
2018-05-06T04:47:08.181Z,57.27
2018-05-06T04:47:39.776Z,57.20
2018-05-06T04:48:11.353Z,57.27
2018-05-06T04:48:42.934Z,57.25
2018-05-06T04:49:14.500Z,57.51
2018-05-06T04:49:46.068Z,57.52
2018-05-06T04:50:17.697Z,57.32
2018-05-06T04:50:49.326Z,57.57
2018-05-06T04:51:20.931Z,57.57
2018-05-06T04:51:52.537Z,57.66
2018-05-06T04:52:24.150Z,57.56
2018-05-06T04:52:55.730Z,57.49
2018-05-06T04:53:27.327Z,57.64
2018-05-06T04:53:58.917Z,57.58
2018-05-06T04:54:30.518Z,57.56
2018-05-06T04:55:02.126Z,57.57
2018-05-06T04:55:33.775Z,57.58
2018-05-06T04:56:05.378Z,57.72
2018-05-06T04:56:36.962Z,57.74
2018-05-06T04:57:08.537Z,57.63
2018-05-06T04:57:40.152Z,57.62
2018-05-06T04:58:11.758Z,57.64
2018-05-06T04:58:43.362Z,57.59
2018-05-06T04:59:14.966Z,57.66
2018-05-06T04:59:46.574Z,57.70
2018-05-06T05:00:18.149Z,57.69
2018-05-06T05:00:49.787Z,57.59
2018-05-06T05:01:21.374Z,57.59
2018-05-06T05:01:52.971Z,57.63
2018-05-06T05:02:24.581Z,57.57
2018-05-06T05:02:56.156Z,57.67
2018-05-06T05:03:27.762Z,57.69
2018-05-06T05:03:59.374Z,57.66
2018-05-06T05:04:30.985Z,57.53
2018-05-06T05:05:02.566Z,57.61
2018-05-06T05:05:34.137Z,57.70
2018-05-06T05:06:05.758Z,57.77
2018-05-06T05:06:37.342Z,57.70
2018-05-06T05:07:08.918Z,57.70
2018-05-06T05:07:40.542Z,57.85
2018-05-06T05:08:12.145Z,57.88
2018-05-06T05:08:43.730Z,57.92
2018-05-06T05:09:15.329Z,57.98
2018-05-06T05:09:46.909Z,58.04
2018-05-06T05:10:18.518Z,58.14
2018-05-06T05:10:50.199Z,58.17
2018-05-06T05:11:21.742Z,58.12
2018-05-06T05:11:53.375Z,58.15
2018-05-06T05:12:24.958Z,58.12
2018-05-06T05:12:56.543Z,58.17
2018-05-06T05:13:28.149Z,58.10
2018-05-06T05:13:59.754Z,58.10
2018-05-06T05:14:31.358Z,58.11
2018-05-06T05:15:02.936Z,58.07
2018-05-06T05:15:34.537Z,58.12
2018-05-06T05:16:06.146Z,58.10
2018-05-06T05:16:37.730Z,58.10
2018-05-06T05:17:09.350Z,58.30
2018-05-06T05:17:40.930Z,58.18
2018-05-06T05:18:12.510Z,58.17
2018-05-06T05:18:44.101Z,58.17
2018-05-06T05:19:15.682Z,58.17
2018-05-06T05:19:47.281Z,58.15
2018-05-06T05:20:18.893Z,58.15
2018-05-06T05:20:50.530Z,58.17
2018-05-06T05:21:22.109Z,58.16
2018-05-06T05:21:53.689Z,58.18
2018-05-06T05:22:25.310Z,58.16
2018-05-06T05:22:56.942Z,58.29
2018-05-06T05:23:28.508Z,58.20
2018-05-06T05:24:00.087Z,58.18
2018-05-06T05:24:31.665Z,58.28
2018-05-06T05:25:03.256Z,58.28
2018-05-06T05:25:34.842Z,58.26
2018-05-06T05:26:06.428Z,58.25
2018-05-06T05:26:38.006Z,58.30
2018-05-06T05:27:09.609Z,58.32
2018-05-06T05:27:41.217Z,58.31
2018-05-06T05:28:12.828Z,58.42
2018-05-06T05:28:44.432Z,58.41
2018-05-06T05:29:16.042Z,58.38
2018-05-06T05:29:47.645Z,58.39
2018-05-06T05:30:19.304Z,58.38
2018-05-06T05:30:50.830Z,58.35
2018-05-06T05:31:22.411Z,58.40
2018-05-06T05:31:53.992Z,58.39
2018-05-06T05:32:25.593Z,58.45
2018-05-06T05:32:57.218Z,58.47
2018-05-06T05:33:28.793Z,58.57
2018-05-06T05:34:00.388Z,58.51
2018-05-06T05:34:32.025Z,58.58
2018-05-06T05:35:03.574Z,58.55
2018-05-06T05:35:35.280Z,58.62
2018-05-06T05:36:06.853Z,58.59
2018-05-06T05:36:38.448Z,58.64
2018-05-06T05:37:10.036Z,58.63
2018-05-06T05:37:41.608Z,58.86
2018-05-06T05:38:13.230Z,58.63
2018-05-06T05:38:44.829Z,58.64
2018-05-06T05:39:16.425Z,58.63
2018-05-06T05:39:48.010Z,58.89
2018-05-06T05:40:19.609Z,58.98
2018-05-06T05:40:51.213Z,58.98
2018-05-06T05:41:22.809Z,58.93
2018-05-06T05:41:54.457Z,58.92
2018-05-06T05:42:26.098Z,58.95
2018-05-06T05:42:57.660Z,58.94
2018-05-06T05:43:29.249Z,59.03
2018-05-06T05:44:00.848Z,59.12
2018-05-06T05:44:32.437Z,59.13
2018-05-06T05:45:04.042Z,59.12
2018-05-06T05:45:35.634Z,59.12
2018-05-06T05:46:07.248Z,59.17
2018-05-06T05:46:38.829Z,59.19
2018-05-06T05:47:10.418Z,59.25
2018-05-06T05:47:42.049Z,59.17
2018-05-06T05:48:13.618Z,59.23
2018-05-06T05:48:45.226Z,59.30
2018-05-06T05:49:16.818Z,59.31
2018-05-06T05:49:48.406Z,59.24
2018-05-06T05:50:20.004Z,59.46
2018-05-06T05:50:51.621Z,59.51
2018-05-06T05:51:23.251Z,59.43
2018-05-06T05:51:54.822Z,59.42
2018-05-06T05:52:26.406Z,59.50
2018-05-06T05:52:58.035Z,59.50
2018-05-06T05:53:29.622Z,59.52
2018-05-06T05:54:01.226Z,59.60
2018-05-06T05:54:32.805Z,59.77
2018-05-06T05:55:04.402Z,59.81
2018-05-06T05:55:36.008Z,59.78
2018-05-06T05:56:07.614Z,59.79
2018-05-06T05:56:39.277Z,59.79
2018-05-06T05:57:10.890Z,59.93
2018-05-06T05:57:42.479Z,60.01
2018-05-06T05:58:14.048Z,60.03
2018-05-06T05:58:45.630Z,60.26
2018-05-06T05:59:17.233Z,60.32
2018-05-06T05:59:48.841Z,60.28
2018-05-06T06:00:20.445Z,60.33
2018-05-06T06:00:52.048Z,60.37
2018-05-06T06:01:23.669Z,61.17
2018-05-06T06:01:55.342Z,61.02
2018-05-06T06:02:26.938Z,61.17
2018-05-06T06:02:58.514Z,61.33
2018-05-06T06:03:30.098Z,61.32
2018-05-06T06:04:01.702Z,61.48
2018-05-06T06:04:33.296Z,61.37
2018-05-06T06:05:04.880Z,61.45
2018-05-06T06:05:36.447Z,61.69
2018-05-06T06:06:08.041Z,61.53
2018-05-06T06:06:39.626Z,61.87
2018-05-06T06:07:11.281Z,61.88
2018-05-06T06:07:42.903Z,61.77
2018-05-06T06:08:14.499Z,61.82
2018-05-06T06:08:46.067Z,61.76
2018-05-06T06:09:17.666Z,61.63
2018-05-06T06:09:49.272Z,61.82
2018-05-06T06:10:20.872Z,61.54
2018-05-06T06:10:52.447Z,61.64
2018-05-06T06:11:24.221Z,61.69
2018-05-06T06:11:55.829Z,61.45
2018-05-06T06:12:27.472Z,61.55
2018-05-06T06:12:59.078Z,61.50
2018-05-06T06:13:30.682Z,61.73
2018-05-06T06:14:02.270Z,61.59
2018-05-06T06:14:33.850Z,61.85
2018-05-06T06:15:05.458Z,61.86
2018-05-06T06:15:37.089Z,61.75
2018-05-06T06:16:08.630Z,61.61
2018-05-06T06:16:40.210Z,61.77
2018-05-06T06:17:11.818Z,61.88
2018-05-06T06:17:43.396Z,61.96
2018-05-06T06:18:15.021Z,61.71
2018-05-06T06:18:46.612Z,61.73
2018-05-06T06:19:18.194Z,61.71
2018-05-06T06:19:49.760Z,61.46
2018-05-06T06:20:21.362Z,61.53
2018-05-06T06:20:52.943Z,61.48
2018-05-06T06:21:24.548Z,61.21
2018-05-06T06:21:56.127Z,61.39
2018-05-06T06:22:27.733Z,61.37
2018-05-06T06:22:59.304Z,61.13
2018-05-06T06:23:30.946Z,61.25
2018-05-06T06:24:03.348Z,61.26
2018-05-06T06:24:34.959Z,61.29
2018-05-06T06:25:06.592Z,61.17
2018-05-06T06:25:38.192Z,61.19
2018-05-06T06:26:09.797Z,61.26
2018-05-06T06:26:41.479Z,61.01
2018-05-06T06:27:13.115Z,61.55
2018-05-06T06:27:44.708Z,61.53
2018-05-06T06:28:16.295Z,61.44
2018-05-06T06:28:47.898Z,61.30
2018-05-06T06:29:19.491Z,61.16
2018-05-06T06:29:51.093Z,61.26
2018-05-06T06:30:22.680Z,61.29
2018-05-06T06:30:54.278Z,61.32
2018-05-06T06:31:25.900Z,61.18
2018-05-06T06:31:57.471Z,61.28
2018-05-06T06:32:29.051Z,61.23
2018-05-06T06:33:00.712Z,61.19
2018-05-06T06:33:32.278Z,61.02
2018-05-06T06:34:03.868Z,61.05
2018-05-06T06:34:35.451Z,61.02
2018-05-06T06:35:07.034Z,61.07
2018-05-06T06:35:38.628Z,60.89
2018-05-06T06:36:10.225Z,61.16
2018-05-06T06:36:41.877Z,61.13
2018-05-06T06:37:13.483Z,61.14
2018-05-06T06:37:45.095Z,61.13
2018-05-06T06:38:16.786Z,61.24
2018-05-06T06:38:48.322Z,61.17
2018-05-06T06:39:19.930Z,61.13
2018-05-06T06:39:51.542Z,61.14
2018-05-06T06:40:23.160Z,60.97
2018-05-06T06:40:54.762Z,60.59
2018-05-06T06:41:26.333Z,60.61
2018-05-06T06:41:57.918Z,60.51
2018-05-06T06:42:29.498Z,60.15
2018-05-06T06:43:01.064Z,60.15
2018-05-06T06:43:32.654Z,60.06
2018-05-06T06:44:04.220Z,59.95
2018-05-06T06:44:35.832Z,59.86
2018-05-06T06:45:07.441Z,59.89
2018-05-06T06:45:39.066Z,59.86
2018-05-06T06:46:10.641Z,59.72
2018-05-06T06:46:42.250Z,59.54
2018-05-06T06:47:13.832Z,59.10